Airfield :
LOGIN :

Register | Disclaimer

   EN    FR    IT 

 










Legend :    VFR   Marginal VFR   IFR   Intensive IFR   Very Intensive IFR
Visi :
Ceiling :
>= 8 km
>= 3000ft
5 to 8 km
1000 to 3000 ft
1500m to 5 km
500 to 1000 ft
800 to 1500m
200 to 500 ft
< 800m
< 200 ft
Symbols :   Thunderstorms  Fog  Heavy snow  Heavy precipitations  Wind > 20 kt
SIGMETs :     Misc.  Thunderstorms  Icing  Turbulence  Mountain Waves  Volcanic Ashes






- Airport Elevation : 306 ft
- IATA code : EMA


EGNX - Nottingham East Midlands

CURRENT METAR :
  • 240920Z 07006KT 9999 FEW025 M01/M02 Q0995

EXPIRED METARs :
  • 240850Z 11007KT 9999 FEW025 M01/M02 Q0996
  • 240820Z 13007KT 9999 FEW020 M02/M02 Q0996
  • 240750Z 11007KT 9999 FEW020 M02/M02 Q0996
  • 240720Z 12007KT CAVOK M02/M03 Q0996
  • 240650Z 12008G19KT 090V160 CAVOK M02/M03 Q0996

TAF TAF EGNX
Valid from the 24 at 06:00 until the 25 at 06:00 UTC


240455Z 2406/2506 VRB02KT 9999 FEW025
PROB30
TEMPO 2410/2417 3000 -SN BKN006
BECMG 2412/2415 02010KT
BECMG 2417/2420 30006KT
PROB40
TEMPO 2417/2506 7000
ATIS : +44 1332 852 852 (ext 3201)



MET'MAP, your aeronautical weather chart ! - Copyright ORBIFLY December 2007 - Disclaimer

ORBIFLY MET'MAP TEAM :

Programming & Development : Alexandra Zaïnal
Concept & original design : Baudouin d'Aumeries
Assistance for programming : Marc-Olivier Méhu
Technical & hardware support : Manuel Goepfert

Contact : metmap@orbifly.com




SOURCES & CREDITS :

   NOAA